createdAt,value
2023-02-15T00:02:10.298Z,-0.52
2023-02-15T00:04:48.678Z,-0.33
2023-02-15T00:07:20.735Z,-0.51
2023-02-15T00:09:51.569Z,-0.64
2023-02-15T00:12:21.437Z,-0.77
2023-02-15T00:14:51.375Z,-0.86
2023-02-15T00:17:20.862Z,-0.84
2023-02-15T00:19:50.975Z,-0.86
2023-02-15T00:22:20.808Z,-1.08
2023-02-15T00:24:51.126Z,-1.26
2023-02-15T00:27:20.948Z,-1.51
2023-02-15T00:29:50.889Z,-1.54
2023-02-15T00:32:20.510Z,-1.65
2023-02-15T00:34:50.359Z,-1.76
2023-02-15T00:37:20.155Z,-1.79
2023-02-15T00:39:50.244Z,-1.77
2023-02-15T00:42:19.745Z,-1.84
2023-02-15T00:44:49.582Z,-1.94
2023-02-15T00:47:19.188Z,-1.59
2023-02-15T00:49:49.305Z,-1.79
2023-02-15T00:52:18.804Z,-1.63
2023-02-15T00:54:48.652Z,-1.74
2023-02-15T00:57:18.489Z,-1.80
2023-02-15T00:59:48.356Z,-1.87
2023-02-15T01:02:18.376Z,-1.59
2023-02-15T01:04:49.118Z,-1.85
2023-02-15T01:07:41.778Z,-1.97
2023-02-15T01:10:11.738Z,-1.82
2023-02-15T01:12:41.590Z,-1.98
2023-02-15T01:15:11.166Z,-1.96
2023-02-15T01:17:40.994Z,-2.04
2023-02-15T01:20:11.082Z,-2.11
2023-02-15T01:22:40.911Z,-2.26
2023-02-15T01:25:10.446Z,-2.26
2023-02-15T01:27:40.346Z,-2.31
2023-02-15T01:30:10.540Z,-2.29
2023-02-15T01:32:40.097Z,-2.35
2023-02-15T01:35:13.695Z,-2.34
2023-02-15T01:37:43.924Z,-2.33
2023-02-15T01:40:18.972Z,-2.17
2023-02-15T01:42:59.095Z,-2.31
2023-02-15T01:45:33.925Z,-2.27
2023-02-15T01:48:23.460Z,-2.39
2023-02-15T01:50:59.670Z,-2.24
2023-02-15T01:53:35.906Z,-2.44
2023-02-15T01:56:12.179Z,-2.36
2023-02-15T01:58:42.976Z,-2.56
2023-02-15T02:01:13.012Z,-2.27
2023-02-15T02:04:04.093Z,-2.38
2023-02-15T02:06:35.887Z,-2.33
2023-02-15T02:09:06.596Z,-2.21
2023-02-15T02:11:36.865Z,-2.41
2023-02-15T02:14:06.871Z,-2.59
2023-02-15T02:16:41.531Z,-2.73
2023-02-15T02:19:24.989Z,-2.61
2023-02-15T02:22:15.742Z,-2.93
2023-02-15T02:25:10.441Z,-3.05
2023-02-15T02:28:08.854Z,-3.06
2023-02-15T02:31:05.808Z,-3.06
2023-02-15T02:33:47.390Z,-3.10
2023-02-15T02:36:31.842Z,-3.13
2023-02-15T02:39:16.607Z,-3.17
2023-02-15T02:41:55.641Z,-3.17
2023-02-15T02:44:28.502Z,-3.15
2023-02-15T02:47:09.886Z,-3.22
2023-02-15T02:49:42.437Z,-3.22
2023-02-15T02:52:41.594Z,-3.28
2023-02-15T02:55:19.760Z,-3.31
2023-02-15T02:58:04.629Z,-3.39
2023-02-15T03:00:37.190Z,-3.46
2023-02-15T03:03:10.312Z,-3.49
2023-02-15T03:05:42.928Z,-3.48
2023-02-15T03:08:16.866Z,-3.47
2023-02-15T03:10:46.942Z,-3.43
2023-02-15T03:13:17.160Z,-3.46
2023-02-15T03:18:41.750Z,-3.54
2023-02-15T03:21:16.001Z,-3.59
2023-02-15T03:23:46.366Z,-3.35
2023-02-15T03:26:16.199Z,-3.52
2023-02-15T03:28:49.764Z,-3.63
2023-02-15T03:31:22.623Z,-3.69
2023-02-15T03:33:55.323Z,-3.56
2023-02-15T03:36:30.585Z,-3.35
2023-02-15T03:39:24.449Z,-3.05
2023-02-15T03:42:02.691Z,-3.35
2023-02-15T03:44:34.356Z,-3.62
2023-02-15T03:47:10.068Z,-3.39
2023-02-15T03:50:03.835Z,-3.51
2023-02-15T03:52:35.176Z,-3.71
2023-02-15T03:55:05.062Z,-3.71
2023-02-15T03:57:55.363Z,-3.79
2023-02-15T04:00:44.664Z,-3.80
2023-02-15T04:03:23.351Z,-3.94
2023-02-15T04:05:53.061Z,-4.06
2023-02-15T04:08:24.690Z,-4.06
2023-02-15T04:10:54.598Z,-4.12
2023-02-15T04:13:26.533Z,-4.14
2023-02-15T04:16:07.127Z,-4.04
2023-02-15T04:18:59.714Z,-4.02
2023-02-15T04:21:49.860Z,-4.21
2023-02-15T04:24:37.449Z,-4.21
2023-02-15T04:27:07.722Z,-4.22
2023-02-15T04:29:37.284Z,-4.00
2023-02-15T04:32:07.741Z,-4.13
2023-02-15T04:34:37.676Z,-4.31
2023-02-15T04:37:07.180Z,-4.25
2023-02-15T04:39:36.676Z,-4.08
2023-02-15T04:42:07.241Z,-4.10
2023-02-15T04:44:36.957Z,-4.18
2023-02-15T04:47:07.100Z,-4.05
2023-02-15T04:49:36.569Z,-4.26
2023-02-15T04:52:06.630Z,-4.15
2023-02-15T04:54:36.119Z,-4.25
2023-02-15T04:57:07.478Z,-4.36
2023-02-15T04:59:37.085Z,-4.36
2023-02-15T05:02:07.278Z,-4.41
2023-02-15T05:04:36.843Z,-4.43
2023-02-15T05:07:06.958Z,-4.44
2023-02-15T05:09:36.452Z,-4.41
2023-02-15T05:12:06.972Z,-4.44
2023-02-15T05:14:36.483Z,-4.55
2023-02-15T05:17:06.804Z,-4.47
2023-02-15T05:19:36.400Z,-4.47
2023-02-15T05:22:06.648Z,-4.54
2023-02-15T05:24:53.983Z,-4.62
2023-02-15T05:27:41.024Z,-4.57
2023-02-15T05:30:12.839Z,-4.26
2023-02-15T05:32:42.545Z,-4.32
2023-02-15T05:35:15.783Z,-4.36
2023-02-15T05:37:45.340Z,-4.21
2023-02-15T05:40:14.871Z,-3.95
2023-02-15T05:42:44.373Z,-3.93
2023-02-15T05:45:14.211Z,-3.85
2023-02-15T05:47:44.548Z,-3.54
2023-02-15T05:50:14.196Z,-3.41
2023-02-15T05:52:44.868Z,-2.93
2023-02-15T05:55:14.534Z,-3.00
2023-02-15T05:57:44.029Z,-2.70
2023-02-15T06:00:14.879Z,-2.76
2023-02-15T06:02:44.744Z,-2.95
2023-02-15T06:05:14.804Z,-2.85
2023-02-15T06:07:47.120Z,-2.77
2023-02-15T06:10:17.142Z,-2.76
2023-02-15T06:12:46.911Z,-2.85
2023-02-15T06:15:16.584Z,-2.84
2023-02-15T06:17:46.406Z,-2.98
2023-02-15T06:20:16.042Z,-3.02
2023-02-15T06:22:45.555Z,-3.17
2023-02-15T06:25:15.275Z,-3.05
2023-02-15T06:27:45.281Z,-2.92
2023-02-15T06:30:15.602Z,-3.13
2023-02-15T06:32:45.361Z,-3.13
2023-02-15T06:35:15.193Z,-3.11
2023-02-15T06:37:46.212Z,-3.22
2023-02-15T06:40:16.501Z,-2.98
2023-02-15T06:42:46.193Z,-2.98
2023-02-15T06:45:15.852Z,-3.16
2023-02-15T06:47:45.352Z,-3.05
2023-02-15T06:50:14.885Z,-2.93
2023-02-15T06:52:44.444Z,-2.96
2023-02-15T06:55:14.332Z,-2.89
2023-02-15T06:57:43.963Z,-2.82
2023-02-15T07:00:14.450Z,-2.54
2023-02-15T07:02:43.935Z,-2.38
2023-02-15T07:05:13.907Z,-2.17
2023-02-15T07:07:43.593Z,-2.16
2023-02-15T07:10:13.120Z,-2.03
2023-02-15T07:12:42.622Z,-1.78
2023-02-15T07:15:15.438Z,-1.68
2023-02-15T07:17:47.326Z,-1.74
2023-02-15T07:20:20.310Z,-1.81
2023-02-15T07:22:50.882Z,-1.75
2023-02-15T07:25:20.523Z,-1.67
2023-02-15T07:27:50.525Z,-1.62
2023-02-15T07:30:20.214Z,-1.64
2023-02-15T07:33:08.642Z,-1.59
2023-02-15T07:35:38.475Z,-1.56
2023-02-15T07:38:08.191Z,-1.47
2023-02-15T07:40:38.010Z,-1.17
2023-02-15T07:43:07.507Z,-1.08
2023-02-15T07:45:37.433Z,-0.79
2023-02-15T07:48:07.297Z,-0.59
2023-02-15T07:50:37.708Z,-0.32
2023-02-15T07:53:07.278Z,-0.27
2023-02-15T07:55:37.183Z,-0.03
2023-02-15T07:58:07.052Z,0.14
2023-02-15T08:00:38.388Z,0.14
2023-02-15T08:03:17.213Z,0.30
2023-02-15T08:05:47.643Z,0.37
2023-02-15T08:08:32.258Z,0.42
2023-02-15T08:11:22.922Z,0.65
2023-02-15T08:13:55.561Z,0.68
2023-02-15T08:16:30.609Z,0.70
2023-02-15T08:19:03.309Z,0.89
2023-02-15T08:21:34.285Z,0.91
2023-02-15T08:24:04.712Z,1.19
2023-02-15T08:26:34.728Z,1.42
2023-02-15T08:29:05.393Z,1.43
2023-02-15T08:31:36.548Z,1.70
2023-02-15T08:34:07.649Z,1.71
2023-02-15T08:36:37.499Z,1.74
2023-02-15T08:39:08.382Z,2.18
2023-02-15T08:41:39.836Z,2.18
2023-02-15T08:44:09.292Z,2.18
2023-02-15T08:46:42.435Z,2.21
2023-02-15T08:49:15.438Z,2.31
2023-02-15T08:51:45.319Z,2.23
2023-02-15T08:54:17.177Z,2.50
2023-02-15T08:56:47.704Z,2.53
2023-02-15T08:59:20.218Z,2.80
2023-02-15T09:01:51.900Z,2.77
2023-02-15T09:04:23.587Z,2.56
2023-02-15T09:06:53.666Z,2.89
2023-02-15T09:09:23.766Z,2.87
2023-02-15T09:11:58.828Z,3.18
2023-02-15T09:14:26.733Z,3.26
2023-02-15T09:16:56.938Z,2.95
2023-02-15T09:19:27.340Z,3.21
2023-02-15T09:21:57.204Z,3.06
2023-02-15T09:24:27.381Z,3.15
2023-02-15T09:26:57.187Z,2.96
2023-02-15T09:29:27.016Z,3.11
2023-02-15T09:31:57.230Z,3.26
2023-02-15T09:34:27.147Z,3.50
2023-02-15T09:36:57.279Z,3.83
2023-02-15T09:39:29.100Z,3.77
2023-02-15T09:42:20.010Z,3.94
2023-02-15T09:45:05.112Z,3.93
2023-02-15T09:47:59.541Z,4.18
2023-02-15T09:50:48.199Z,4.21
2023-02-15T09:53:53.845Z,4.41
2023-02-15T09:56:57.156Z,4.67
2023-02-15T09:59:38.835Z,4.78
2023-02-15T10:02:26.042Z,5.09
2023-02-15T10:05:11.741Z,5.13
2023-02-15T10:07:47.533Z,5.06
2023-02-15T10:10:40.008Z,4.95
2023-02-15T10:13:30.922Z,5.42
2023-02-15T10:16:13.148Z,5.20
2023-02-15T10:18:48.692Z,5.47
2023-02-15T10:21:34.051Z,5.25
2023-02-15T10:24:16.008Z,5.57
2023-02-15T10:26:48.056Z,5.77
2023-02-15T10:29:38.584Z,5.77
2023-02-15T10:32:13.828Z,5.95
2023-02-15T10:34:47.033Z,5.95
2023-02-15T10:37:19.958Z,6.37
2023-02-15T10:39:55.505Z,6.60
2023-02-15T10:42:40.067Z,6.58
2023-02-15T10:45:13.160Z,6.36
2023-02-15T10:47:48.705Z,6.15
2023-02-15T10:50:33.520Z,6.12
2023-02-15T10:53:21.249Z,6.38
2023-02-15T10:56:17.327Z,6.47
2023-02-15T10:59:02.325Z,6.47
2023-02-15T11:01:42.145Z,6.33
2023-02-15T11:04:35.088Z,6.58
2023-02-15T11:07:17.842Z,6.81
2023-02-15T11:09:54.411Z,7.01
2023-02-15T11:12:27.028Z,7.46
2023-02-15T11:14:59.912Z,7.20
2023-02-15T11:17:41.794Z,7.10
2023-02-15T11:20:20.228Z,7.35
2023-02-15T11:22:52.110Z,7.26
2023-02-15T11:25:27.761Z,7.55
2023-02-15T11:27:58.267Z,7.51
2023-02-15T11:30:37.150Z,7.73
2023-02-15T11:33:07.678Z,7.73
2023-02-15T11:36:01.443Z,7.15
2023-02-15T11:38:35.984Z,7.79
2023-02-15T11:41:15.231Z,7.65
2023-02-15T11:44:02.698Z,7.50
2023-02-15T11:46:32.952Z,7.04
2023-02-15T11:49:03.878Z,7.04
2023-02-15T11:51:33.707Z,8.02
2023-02-15T11:54:05.443Z,8.05
2023-02-15T11:56:35.969Z,7.86
2023-02-15T11:59:10.264Z,7.86
2023-02-15T12:01:45.255Z,7.78
2023-02-15T12:04:30.302Z,7.70
2023-02-15T12:07:07.173Z,7.70
2023-02-15T12:10:06.007Z,7.77
2023-02-15T12:12:37.427Z,7.75
2023-02-15T12:15:09.424Z,7.86
2023-02-15T12:17:53.748Z,7.80
2023-02-15T12:20:29.514Z,7.71
2023-02-15T12:23:08.183Z,7.97
2023-02-15T12:25:56.847Z,7.89
2023-02-15T12:28:41.714Z,7.57
2023-02-15T12:31:26.448Z,7.57
2023-02-15T12:33:59.748Z,7.96
2023-02-15T12:36:33.066Z,7.92
2023-02-15T12:39:08.824Z,7.99
2023-02-15T12:41:40.861Z,8.21
2023-02-15T12:44:20.013Z,8.04
2023-02-15T12:47:06.808Z,7.50
2023-02-15T12:49:38.934Z,7.90
2023-02-15T12:52:18.687Z,8.00
2023-02-15T12:54:49.645Z,8.17
2023-02-15T12:57:28.213Z,8.36
2023-02-15T13:00:01.662Z,8.65
2023-02-15T13:02:34.532Z,8.72
2023-02-15T13:05:14.878Z,8.99
2023-02-15T13:07:53.734Z,9.22
2023-02-15T13:10:29.556Z,9.13
2023-02-15T13:13:00.499Z,8.81
2023-02-15T13:15:36.812Z,8.80
2023-02-15T13:18:09.336Z,8.44
2023-02-15T13:20:41.636Z,8.42
2023-02-15T13:23:17.167Z,8.47
2023-02-15T13:25:50.656Z,8.63
2023-02-15T13:28:24.611Z,8.65
2023-02-15T13:30:54.892Z,8.45
2023-02-15T13:33:36.725Z,8.22
2023-02-15T13:36:10.548Z,8.24
2023-02-15T13:38:58.529Z,8.24
2023-02-15T13:41:37.365Z,8.34
2023-02-15T13:44:29.650Z,8.19
2023-02-15T13:47:08.315Z,8.14
2023-02-15T13:49:50.010Z,8.17
2023-02-15T13:52:29.057Z,8.48
2023-02-15T13:55:24.659Z,8.19
2023-02-15T13:58:03.146Z,8.10
2023-02-15T14:00:51.115Z,8.05
2023-02-15T14:03:30.473Z,8.02
2023-02-15T14:06:11.955Z,7.92
2023-02-15T14:09:02.460Z,7.85
2023-02-15T14:12:07.587Z,8.18
2023-02-15T14:15:11.032Z,7.54
2023-02-15T14:17:48.999Z,7.95
2023-02-15T14:20:41.198Z,8.01
2023-02-15T14:23:45.163Z,8.00
2023-02-15T14:26:37.817Z,7.89
2023-02-15T14:29:35.900Z,7.95
2023-02-15T14:32:33.319Z,7.96
2023-02-15T14:35:05.338Z,7.96
2023-02-15T14:37:53.600Z,7.84
2023-02-15T14:41:03.130Z,7.71
2023-02-15T14:44:09.645Z,7.88
2023-02-15T14:47:00.516Z,7.94
2023-02-15T14:49:33.906Z,7.80
2023-02-15T14:52:08.091Z,7.67
2023-02-15T14:54:40.664Z,7.44
2023-02-15T14:57:13.518Z,7.65
2023-02-15T14:59:59.191Z,7.58
2023-02-15T15:02:55.542Z,7.55
2023-02-15T15:05:36.899Z,7.31
2023-02-15T15:08:08.023Z,7.43
2023-02-15T15:10:40.616Z,7.53
2023-02-15T15:13:37.252Z,7.49
2023-02-15T15:16:29.810Z,7.37
2023-02-15T15:19:01.372Z,7.05
2023-02-15T15:21:53.188Z,7.27
2023-02-15T15:24:44.569Z,7.05
2023-02-15T15:27:51.144Z,7.04
2023-02-15T15:30:24.198Z,7.18
2023-02-15T15:33:00.012Z,6.86
2023-02-15T15:35:51.593Z,6.75
2023-02-15T15:38:57.853Z,6.90
2023-02-15T15:41:51.605Z,6.62
2023-02-15T15:44:36.428Z,6.57
2023-02-15T15:47:28.678Z,6.53
2023-02-15T15:50:00.561Z,6.31
2023-02-15T15:52:32.944Z,6.51
2023-02-15T15:55:08.710Z,6.35
2023-02-15T15:57:41.356Z,6.20
2023-02-15T16:00:33.184Z,6.12
2023-02-15T16:03:03.354Z,5.82
2023-02-15T16:05:40.430Z,5.68
2023-02-15T16:08:10.275Z,5.45
2023-02-15T16:10:40.353Z,5.60
2023-02-15T16:13:11.429Z,5.70
2023-02-15T16:15:53.536Z,5.52
2023-02-15T16:18:28.400Z,5.14
2023-02-15T16:21:03.385Z,4.90
2023-02-15T16:23:42.800Z,4.58
2023-02-15T16:26:30.249Z,4.58
2023-02-15T16:29:02.416Z,4.52
2023-02-15T16:31:32.521Z,4.44
2023-02-15T16:34:03.669Z,4.70
2023-02-15T16:36:33.649Z,4.44
2023-02-15T16:39:09.510Z,4.25
2023-02-15T16:41:40.038Z,4.17
2023-02-15T16:44:12.656Z,4.31
2023-02-15T16:46:45.281Z,3.96
2023-02-15T16:49:23.556Z,3.73
2023-02-15T16:51:59.451Z,3.61
2023-02-15T16:54:32.405Z,3.48
2023-02-15T16:57:03.451Z,3.62
2023-02-15T16:59:40.569Z,3.10
2023-02-15T17:02:30.605Z,2.83
2023-02-15T17:04:49.308Z,2.83
2023-02-15T17:07:22.701Z,2.47
2023-02-15T17:09:57.685Z,2.40
2023-02-15T17:12:47.704Z,2.22
2023-02-15T17:15:32.721Z,2.24
2023-02-15T17:18:08.266Z,2.22
2023-02-15T17:20:42.024Z,2.26
2023-02-15T17:23:29.594Z,2.36
2023-02-15T17:26:01.606Z,2.19
2023-02-15T17:28:33.308Z,1.93
2023-02-15T17:31:06.790Z,1.64
2023-02-15T17:33:40.483Z,1.64
2023-02-15T17:36:20.278Z,1.53
2023-02-15T17:39:02.458Z,1.37
2023-02-15T17:41:35.207Z,1.22
2023-02-15T17:44:05.750Z,1.04
2023-02-15T17:46:37.894Z,0.99
2023-02-15T17:49:08.209Z,1.11
2023-02-15T17:51:38.402Z,1.23
2023-02-15T17:54:27.539Z,0.97
2023-02-15T17:56:59.674Z,0.73
2023-02-15T17:59:29.486Z,0.73
2023-02-15T18:02:17.196Z,0.64
2023-02-15T18:05:05.186Z,1.03
2023-02-15T18:07:52.847Z,0.68
2023-02-15T18:10:40.175Z,0.37
2023-02-15T18:13:10.016Z,0.22
2023-02-15T18:15:39.949Z,0.18
2023-02-15T18:18:12.866Z,0.17
2023-02-15T18:20:43.709Z,0.10
2023-02-15T18:23:16.407Z,0.22
2023-02-15T18:25:46.574Z,0.13
2023-02-15T18:28:16.415Z,0.29
2023-02-15T18:30:47.374Z,0.28
2023-02-15T18:33:25.820Z,0.21
2023-02-15T18:35:55.618Z,0.23
2023-02-15T18:38:25.599Z,-0.06
2023-02-15T18:40:55.560Z,-0.24
2023-02-15T18:43:25.750Z,-0.34
2023-02-15T18:45:55.590Z,-0.08
2023-02-15T18:48:25.527Z,0.00
2023-02-15T18:50:55.384Z,-0.18
2023-02-15T18:53:25.012Z,-0.06
2023-02-15T18:55:55.111Z,-0.36
2023-02-15T18:58:25.076Z,-0.54
2023-02-15T19:00:55.140Z,-0.48
2023-02-15T19:03:25.113Z,-0.32
2023-02-15T19:05:55.286Z,-0.29
2023-02-15T19:08:25.283Z,-0.42
2023-02-15T19:10:55.581Z,-0.33
2023-02-15T19:13:26.414Z,-0.68
2023-02-15T19:15:56.325Z,-0.74
2023-02-15T19:18:26.475Z,-0.83
2023-02-15T19:20:56.251Z,-0.83
2023-02-15T19:23:26.961Z,-0.97
2023-02-15T19:25:56.488Z,-1.10
2023-02-15T19:28:33.210Z,-1.11
2023-02-15T19:31:03.376Z,-1.15
2023-02-15T19:33:33.185Z,-1.18
2023-02-15T19:36:03.311Z,-1.28
2023-02-15T19:38:38.002Z,-1.41
2023-02-15T19:41:09.974Z,-1.34
2023-02-15T19:43:39.772Z,-1.26
2023-02-15T19:46:12.381Z,-1.17
2023-02-15T19:48:42.225Z,-1.24
2023-02-15T19:51:14.233Z,-1.34
2023-02-15T19:53:44.428Z,-1.40
2023-02-15T19:56:20.201Z,-1.46
2023-02-15T19:58:50.810Z,-1.47
2023-02-15T20:01:22.645Z,-1.34
2023-02-15T20:03:53.450Z,-1.44
2023-02-15T20:06:23.274Z,-1.40
2023-02-15T20:08:54.557Z,-1.41
2023-02-15T20:11:25.393Z,-1.52
2023-02-15T20:13:55.031Z,-1.22
2023-02-15T20:16:26.238Z,-1.25
2023-02-15T20:18:56.085Z,-1.48
2023-02-15T20:21:25.904Z,-1.58
2023-02-15T20:23:55.932Z,-1.24
2023-02-15T20:26:27.802Z,-1.45
2023-02-15T20:28:57.676Z,-1.52
2023-02-15T20:31:27.568Z,-1.22
2023-02-15T20:33:58.566Z,-1.18
2023-02-15T20:36:27.329Z,-0.93
2023-02-15T20:38:59.162Z,-1.35
2023-02-15T20:41:39.966Z,-1.53
2023-02-15T20:44:18.966Z,-1.65
2023-02-15T20:46:50.188Z,-1.69
2023-02-15T20:49:20.238Z,-1.44
2023-02-15T20:51:49.972Z,-1.72
2023-02-15T20:54:23.016Z,-1.83
2023-02-15T20:56:54.414Z,-1.92
2023-02-15T20:59:33.484Z,-1.88
2023-02-15T21:02:20.900Z,-1.95
2023-02-15T21:04:51.645Z,-1.93
2023-02-15T21:07:22.507Z,-2.27
2023-02-15T21:09:54.124Z,-2.21
2023-02-15T21:12:23.936Z,-2.26
2023-02-15T21:14:53.738Z,-1.91
2023-02-15T21:17:23.562Z,-2.10
2023-02-15T21:19:53.442Z,-2.19
2023-02-15T21:22:23.812Z,-2.26
2023-02-15T21:24:55.983Z,-2.35
2023-02-15T21:27:25.833Z,-2.33
2023-02-15T21:29:55.750Z,-2.30
2023-02-15T21:32:25.806Z,-2.35
2023-02-15T21:34:57.666Z,-2.47
2023-02-15T21:37:30.393Z,-2.50
2023-02-15T21:40:00.134Z,-2.50
2023-02-15T21:42:47.899Z,-2.54
2023-02-15T21:45:37.369Z,-2.53
2023-02-15T21:48:07.552Z,-2.64
2023-02-15T21:50:56.141Z,-2.60
2023-02-15T21:53:38.165Z,-2.60
2023-02-15T21:56:09.941Z,-2.62
2023-02-15T21:58:39.808Z,-2.66
2023-02-15T22:01:21.640Z,-2.58
2023-02-15T22:03:50.946Z,-2.44
2023-02-15T22:06:20.463Z,-2.59
2023-02-15T22:08:50.750Z,-2.64
2023-02-15T22:11:22.652Z,-2.38
2023-02-15T22:13:52.652Z,-2.09
2023-02-15T22:16:24.061Z,-2.43
2023-02-15T22:18:52.852Z,-2.18
2023-02-15T22:21:22.534Z,-2.63
2023-02-15T22:23:52.328Z,-2.86
2023-02-15T22:26:27.858Z,-2.89
2023-02-15T22:28:58.659Z,-2.92
2023-02-15T22:31:29.618Z,-2.94
2023-02-15T22:33:59.442Z,-2.75
2023-02-15T22:36:31.472Z,-2.87
2023-02-15T22:39:01.261Z,-2.66
2023-02-15T22:41:32.328Z,-2.87
2023-02-15T22:44:02.238Z,-2.97
2023-02-15T22:46:32.062Z,-3.04
2023-02-15T22:49:01.894Z,-3.04
2023-02-15T22:51:31.729Z,-3.08
2023-02-15T22:54:01.653Z,-3.15
2023-02-15T22:56:40.283Z,-3.13
2023-02-15T22:59:32.050Z,-3.03
2023-02-15T23:02:03.446Z,-3.07
2023-02-15T23:04:32.277Z,-3.12
2023-02-15T23:07:01.950Z,-3.30
2023-02-15T23:09:31.794Z,-3.31
2023-02-15T23:12:01.912Z,-3.37
2023-02-15T23:14:34.930Z,-3.34
2023-02-15T23:17:04.829Z,-3.19
2023-02-15T23:19:34.821Z,-3.34
2023-02-15T23:22:04.742Z,-3.02
2023-02-15T23:24:34.639Z,-3.11
2023-02-15T23:27:22.037Z,-3.41
2023-02-15T23:29:51.849Z,-3.44
2023-02-15T23:32:22.265Z,-3.50
2023-02-15T23:34:52.454Z,-3.52
2023-02-15T23:37:22.318Z,-3.55
2023-02-15T23:40:11.078Z,-3.52
2023-02-15T23:42:41.032Z,-3.50
2023-02-15T23:45:13.895Z,-3.59
2023-02-15T23:48:03.920Z,-3.66
2023-02-15T23:50:33.410Z,-3.66
2023-02-15T23:53:03.911Z,-3.80
2023-02-15T23:55:39.099Z,-3.80
2023-02-15T23:58:24.730Z,-3.75
